createdAt,value
2017-09-06T00:00:23.464Z,1010.35
2017-09-06T00:01:04.047Z,1010.31
2017-09-06T00:01:44.632Z,1010.32
2017-09-06T00:02:25.208Z,1010.31
2017-09-06T00:03:05.788Z,1010.3
2017-09-06T00:03:46.359Z,1010.22
2017-09-06T00:04:26.974Z,1010.24
2017-09-06T00:05:07.563Z,1010.26
2017-09-06T00:05:48.140Z,1010.22
2017-09-06T00:06:28.722Z,1010.2
2017-09-06T00:07:09.297Z,1010.2
2017-09-06T00:07:49.866Z,1010.18
2017-09-06T00:08:30.453Z,1010.19
2017-09-06T00:09:11.029Z,1010.19
2017-09-06T00:09:51.625Z,1010.18
2017-09-06T00:10:32.223Z,1010.16
2017-09-06T00:11:12.819Z,1010.16
2017-09-06T00:11:53.400Z,1010.18
2017-09-06T00:12:33.978Z,1010.15
2017-09-06T00:13:14.549Z,1010.14
2017-09-06T00:13:55.120Z,1010.16
2017-09-06T00:14:35.707Z,1010.12
2017-09-06T00:15:16.283Z,1010.12
2017-09-06T00:15:56.844Z,1010.1
2017-09-06T00:16:37.427Z,1010.1
2017-09-06T00:17:18.010Z,1010.12
2017-09-06T00:17:58.586Z,1010.14
2017-09-06T00:18:39.162Z,1010.08
2017-09-06T00:19:19.734Z,1010.08
2017-09-06T00:20:00.319Z,1010.08
2017-09-06T00:20:40.885Z,1010.08
2017-09-06T00:21:21.449Z,1010.08
2017-09-06T00:22:02.041Z,1010.06
2017-09-06T00:22:42.609Z,1010.05
2017-09-06T00:23:23.175Z,1010.13
2017-09-06T00:24:03.755Z,1010.05
2017-09-06T00:24:47.040Z,1010.07
2017-09-06T00:25:27.613Z,1010.08
2017-09-06T00:26:08.182Z,1010.02
2017-09-06T00:26:48.758Z,1010.02
2017-09-06T00:27:29.343Z,1010
2017-09-06T00:28:09.924Z,1010
2017-09-06T00:28:50.491Z,1009.99
2017-09-06T00:29:31.091Z,1010.02
2017-09-06T00:30:11.681Z,1009.99
2017-09-06T00:30:52.270Z,1010.01
2017-09-06T00:31:32.888Z,1009.98
2017-09-06T00:32:13.461Z,1009.97
2017-09-06T00:32:54.024Z,1009.96
2017-09-06T00:33:34.609Z,1009.97
2017-09-06T00:34:15.175Z,1009.94
2017-09-06T00:34:55.745Z,1009.93
2017-09-06T00:35:36.313Z,1009.94
2017-09-06T00:36:16.917Z,1009.89
2017-09-06T00:36:57.494Z,1009.88
2017-09-06T00:37:38.068Z,1009.88
2017-09-06T00:38:18.651Z,1009.85
2017-09-06T00:38:59.242Z,1009.88
2017-09-06T00:39:39.831Z,1009.84
2017-09-06T00:40:20.410Z,1009.85
2017-09-06T00:41:01.002Z,1009.83
2017-09-06T00:41:41.617Z,1009.84
2017-09-06T00:42:22.201Z,1009.92
2017-09-06T00:43:02.793Z,1009.86
2017-09-06T00:43:43.350Z,1009.85
2017-09-06T00:44:23.962Z,1009.91
2017-09-06T00:45:04.548Z,1009.87
2017-09-06T00:45:45.146Z,1009.88
2017-09-06T00:46:25.714Z,1009.88
2017-09-06T00:47:06.299Z,1009.87
2017-09-06T00:47:46.888Z,1009.89
2017-09-06T00:48:27.472Z,1009.94
2017-09-06T00:49:08.053Z,1009.94
2017-09-06T00:49:48.658Z,1009.89
2017-09-06T00:50:29.264Z,1009.91
2017-09-06T00:51:09.854Z,1009.92
2017-09-06T00:51:50.430Z,1009.91
2017-09-06T00:52:31.006Z,1009.87
2017-09-06T00:53:11.620Z,1009.88
2017-09-06T00:53:52.179Z,1009.89
2017-09-06T00:54:32.771Z,1009.84
2017-09-06T00:55:13.357Z,1009.87
2017-09-06T00:55:53.986Z,1009.87
2017-09-06T00:56:34.551Z,1009.82
2017-09-06T00:57:15.126Z,1009.81
2017-09-06T00:57:55.727Z,1009.79
2017-09-06T00:58:36.313Z,1009.79
2017-09-06T00:59:16.888Z,1009.8
2017-09-06T00:59:57.486Z,1009.81
2017-09-06T01:00:38.080Z,1009.77
2017-09-06T01:01:18.680Z,1009.78
2017-09-06T01:01:59.264Z,1009.8
2017-09-06T01:02:39.840Z,1009.77
2017-09-06T01:03:20.407Z,1009.75
2017-09-06T01:04:00.984Z,1009.75
2017-09-06T01:04:41.574Z,1009.71
2017-09-06T01:05:22.159Z,1009.72
2017-09-06T01:06:02.741Z,1009.68
2017-09-06T01:06:43.331Z,1009.67
2017-09-06T01:07:23.919Z,1009.68
2017-09-06T01:08:04.492Z,1009.66
2017-09-06T01:08:45.121Z,1009.66
2017-09-06T01:09:25.697Z,1009.66
2017-09-06T01:10:06.265Z,1009.66
2017-09-06T01:10:46.849Z,1009.64
2017-09-06T01:11:27.454Z,1009.66
2017-09-06T01:12:08.057Z,1009.63
2017-09-06T01:12:48.624Z,1009.63
2017-09-06T01:13:29.207Z,1009.62
2017-09-06T01:14:09.794Z,1009.59
2017-09-06T01:14:50.379Z,1009.6
2017-09-06T01:15:30.964Z,1009.61
2017-09-06T01:16:11.544Z,1009.53
2017-09-06T01:16:52.171Z,1009.57
2017-09-06T01:17:32.754Z,1009.55
2017-09-06T01:18:13.311Z,1009.55
2017-09-06T01:18:53.888Z,1009.52
2017-09-06T01:19:34.471Z,1009.52
2017-09-06T01:20:15.073Z,1009.53
2017-09-06T01:20:55.657Z,1009.49
2017-09-06T01:21:36.220Z,1009.47
2017-09-06T01:22:16.809Z,1009.45
2017-09-06T01:22:57.361Z,1009.44
2017-09-06T01:23:37.940Z,1009.46
2017-09-06T01:24:18.522Z,1009.43
2017-09-06T01:24:59.111Z,1009.43
2017-09-06T01:25:39.679Z,1009.43
2017-09-06T01:26:20.292Z,1009.43
2017-09-06T01:27:00.832Z,1009.44
2017-09-06T01:27:41.442Z,1009.37
2017-09-06T01:28:22.041Z,1009.37
2017-09-06T01:29:02.628Z,1009.38
2017-09-06T01:29:43.232Z,1009.36
2017-09-06T01:30:23.832Z,1009.35
2017-09-06T01:31:04.413Z,1009.36
2017-09-06T01:31:45.021Z,1009.35
2017-09-06T01:32:25.591Z,1009.38
2017-09-06T01:33:06.235Z,1009.41
2017-09-06T01:33:46.849Z,1009.4
2017-09-06T01:34:27.434Z,1009.36
2017-09-06T01:35:08.006Z,1009.36
2017-09-06T01:35:48.588Z,1009.37
2017-09-06T01:36:29.160Z,1009.36
2017-09-06T01:37:09.737Z,1009.33
2017-09-06T01:37:50.302Z,1009.36
2017-09-06T01:38:30.863Z,1009.31
2017-09-06T01:39:11.469Z,1009.29
2017-09-06T01:39:52.010Z,1009.27
2017-09-06T01:40:32.609Z,1009.24
2017-09-06T01:41:13.185Z,1009.23
2017-09-06T01:41:53.779Z,1009.24
2017-09-06T01:42:34.361Z,1009.2
2017-09-06T01:43:14.936Z,1009.2
2017-09-06T01:43:55.519Z,1009.22
2017-09-06T01:44:36.123Z,1009.2
2017-09-06T01:45:16.708Z,1009.21
2017-09-06T01:45:57.304Z,1009.19
2017-09-06T01:46:37.892Z,1009.18
2017-09-06T01:47:18.462Z,1009.2
2017-09-06T01:47:59.052Z,1009.17
2017-09-06T01:48:39.623Z,1009.18
2017-09-06T01:49:20.192Z,1009.18
2017-09-06T01:50:00.783Z,1009.17
2017-09-06T01:50:41.355Z,1009.15
2017-09-06T01:51:21.929Z,1009.16
2017-09-06T01:52:02.492Z,1009.15
2017-09-06T01:52:43.066Z,1009.14
2017-09-06T01:53:23.643Z,1009.12
2017-09-06T01:54:04.216Z,1009.07
2017-09-06T01:54:44.803Z,1009.09
2017-09-06T01:55:25.392Z,1009.07
2017-09-06T01:56:05.994Z,1009.08
2017-09-06T01:56:46.581Z,1009.03
2017-09-06T01:57:27.149Z,1009.03
2017-09-06T01:58:07.739Z,1009
2017-09-06T01:58:48.305Z,1009
2017-09-06T01:59:28.899Z,1009.08
2017-09-06T02:00:09.480Z,1009.07
2017-09-06T02:00:50.065Z,1009.05
2017-09-06T02:01:30.627Z,1008.99
2017-09-06T02:02:11.243Z,1009
2017-09-06T02:02:51.848Z,1009.02
2017-09-06T02:03:32.410Z,1008.98
2017-09-06T02:04:13.038Z,1009
2017-09-06T02:04:53.636Z,1008.96
2017-09-06T02:05:34.223Z,1008.97
2017-09-06T02:06:14.798Z,1008.93
2017-09-06T02:06:55.368Z,1008.95
2017-09-06T02:07:35.976Z,1008.91
2017-09-06T02:08:16.551Z,1008.89
2017-09-06T02:08:57.127Z,1008.9
2017-09-06T02:09:37.722Z,1008.89
2017-09-06T02:10:18.339Z,1008.86
2017-09-06T02:10:58.926Z,1008.83
2017-09-06T02:11:39.496Z,1008.84
2017-09-06T02:12:20.080Z,1008.79
2017-09-06T02:13:00.658Z,1008.81
2017-09-06T02:13:41.243Z,1008.75
2017-09-06T02:14:21.818Z,1008.77
2017-09-06T02:15:02.400Z,1008.76
2017-09-06T02:15:42.979Z,1008.75
2017-09-06T02:16:23.572Z,1008.77
2017-09-06T02:17:04.163Z,1008.74
2017-09-06T02:17:44.745Z,1008.77
2017-09-06T02:18:25.394Z,1008.76
2017-09-06T02:19:05.981Z,1008.76
2017-09-06T02:19:46.564Z,1008.75
2017-09-06T02:20:27.154Z,1008.79
2017-09-06T02:21:07.735Z,1008.77
2017-09-06T02:21:48.305Z,1008.79
2017-09-06T02:22:28.876Z,1008.77
2017-09-06T02:23:09.445Z,1008.77
2017-09-06T02:23:50.030Z,1008.78
2017-09-06T02:24:30.616Z,1008.75
2017-09-06T02:25:11.186Z,1008.74
2017-09-06T02:25:51.841Z,1008.7
2017-09-06T02:26:32.417Z,1008.69
2017-09-06T02:27:12.997Z,1008.68
2017-09-06T02:27:53.555Z,1008.66
2017-09-06T02:28:34.143Z,1008.66
2017-09-06T02:29:14.714Z,1008.69
2017-09-06T02:29:55.319Z,1008.64
2017-09-06T02:30:35.894Z,1008.67
2017-09-06T02:31:16.477Z,1008.64
2017-09-06T02:31:57.046Z,1008.64
2017-09-06T02:32:37.649Z,1008.65
2017-09-06T02:33:18.224Z,1008.61
2017-09-06T02:33:58.819Z,1008.61
2017-09-06T02:34:39.402Z,1008.59
2017-09-06T02:35:19.997Z,1008.55
2017-09-06T02:36:00.571Z,1008.55
2017-09-06T02:36:41.153Z,1008.57
2017-09-06T02:37:21.768Z,1008.55
2017-09-06T02:38:02.318Z,1008.54
2017-09-06T02:38:42.918Z,1008.54
2017-09-06T02:39:23.509Z,1008.59
2017-09-06T02:40:04.114Z,1008.57
2017-09-06T02:40:44.725Z,1008.54
2017-09-06T02:41:25.319Z,1008.56
2017-09-06T02:42:05.892Z,1008.56
2017-09-06T02:42:46.477Z,1008.53
2017-09-06T02:43:27.040Z,1008.56
2017-09-06T02:44:07.616Z,1008.59
2017-09-06T02:44:48.180Z,1008.55
2017-09-06T02:45:28.770Z,1008.58
2017-09-06T02:46:09.341Z,1008.56
2017-09-06T02:46:49.990Z,1008.54
2017-09-06T02:47:30.665Z,1008.55
2017-09-06T02:48:11.262Z,1008.55
2017-09-06T02:48:51.847Z,1008.53
2017-09-06T02:49:32.446Z,1008.48
2017-09-06T02:50:13.038Z,1008.46
2017-09-06T02:50:53.606Z,1008.46
2017-09-06T02:51:34.184Z,1008.44
2017-09-06T02:52:14.764Z,1008.4
2017-09-06T02:52:55.356Z,1008.4
2017-09-06T02:53:35.942Z,1008.38
2017-09-06T02:54:16.557Z,1008.41
2017-09-06T02:54:57.108Z,1008.34
2017-09-06T02:55:37.702Z,1008.34
2017-09-06T02:56:18.298Z,1008.31
2017-09-06T02:56:58.869Z,1008.34
2017-09-06T02:57:39.454Z,1008.33
2017-09-06T02:58:20.062Z,1008.35
2017-09-06T02:59:00.636Z,1008.36
2017-09-06T02:59:41.233Z,1008.36
2017-09-06T03:00:21.815Z,1008.38
2017-09-06T03:01:02.398Z,1008.36
2017-09-06T03:01:42.987Z,1008.38
2017-09-06T03:02:23.549Z,1008.3
2017-09-06T03:03:04.118Z,1008.31
2017-09-06T03:03:44.724Z,1008.29
2017-09-06T03:04:25.313Z,1008.3
2017-09-06T03:05:05.887Z,1008.25
2017-09-06T03:05:46.464Z,1008.24
2017-09-06T03:06:27.029Z,1008.24
2017-09-06T03:07:07.618Z,1008.23
2017-09-06T03:07:48.228Z,1008.22
2017-09-06T03:08:28.837Z,1008.16
2017-09-06T03:09:09.415Z,1008.22
2017-09-06T03:09:50.040Z,1008.22
2017-09-06T03:10:30.578Z,1008.2
2017-09-06T03:11:11.171Z,1008.18
2017-09-06T03:11:51.782Z,1008.16
2017-09-06T03:12:32.359Z,1008.19
2017-09-06T03:13:12.933Z,1008.17
2017-09-06T03:13:53.578Z,1008.17
2017-09-06T03:14:34.151Z,1008.14
2017-09-06T03:15:14.758Z,1008.12
2017-09-06T03:15:55.359Z,1008.11
2017-09-06T03:16:35.951Z,1008.09
2017-09-06T03:17:16.528Z,1008.07
2017-09-06T03:17:57.181Z,1008.07
2017-09-06T03:18:37.753Z,1008.05
2017-09-06T03:19:18.345Z,1008.08
2017-09-06T03:19:58.938Z,1008.07
2017-09-06T03:20:39.558Z,1008.04
2017-09-06T03:21:20.140Z,1008.03
2017-09-06T03:22:00.724Z,1008.02
2017-09-06T03:22:41.290Z,1007.99
2017-09-06T03:23:21.858Z,1007.99
2017-09-06T03:24:02.432Z,1008.01
2017-09-06T03:24:43.004Z,1007.98
2017-09-06T03:25:23.582Z,1007.96
2017-09-06T03:26:04.175Z,1007.98
2017-09-06T03:26:44.769Z,1007.96
2017-09-06T03:27:25.350Z,1007.9
2017-09-06T03:28:05.927Z,1007.91
2017-09-06T03:28:46.510Z,1007.89
2017-09-06T03:29:27.102Z,1007.94
2017-09-06T03:30:07.682Z,1007.91
2017-09-06T03:30:48.266Z,1007.94
2017-09-06T03:31:28.896Z,1007.93
2017-09-06T03:32:09.550Z,1007.96
2017-09-06T03:32:50.093Z,1007.96
2017-09-06T03:33:30.673Z,1007.93
2017-09-06T03:34:11.248Z,1007.98
2017-09-06T03:34:51.829Z,1007.98
2017-09-06T03:35:32.392Z,1007.91
2017-09-06T03:36:13.003Z,1007.87
2017-09-06T03:36:53.576Z,1007.88
2017-09-06T03:37:34.143Z,1007.87
2017-09-06T03:38:14.721Z,1007.88
2017-09-06T03:38:55.348Z,1007.86
2017-09-06T03:39:35.946Z,1007.81
2017-09-06T03:40:16.520Z,1007.84
2017-09-06T03:40:57.115Z,1007.83
2017-09-06T03:41:37.717Z,1007.8
2017-09-06T03:42:18.310Z,1007.79
2017-09-06T03:42:58.921Z,1007.79
2017-09-06T03:43:39.555Z,1007.73
2017-09-06T03:44:20.149Z,1007.75
2017-09-06T03:45:00.709Z,1007.7
2017-09-06T03:45:41.324Z,1007.71
2017-09-06T03:46:21.965Z,1007.69
2017-09-06T03:47:02.577Z,1007.71
2017-09-06T03:47:43.184Z,1007.69
2017-09-06T03:48:23.773Z,1007.67
2017-09-06T03:49:04.438Z,1007.67
2017-09-06T03:49:45.117Z,1007.66
2017-09-06T03:50:25.758Z,1007.72
2017-09-06T03:51:06.337Z,1007.69
2017-09-06T03:51:47.018Z,1007.72
2017-09-06T03:52:27.652Z,1007.69
2017-09-06T03:53:08.232Z,1007.69
2017-09-06T03:53:48.816Z,1007.7
2017-09-06T03:54:29.410Z,1007.73
2017-09-06T03:55:09.999Z,1007.67
2017-09-06T03:55:50.594Z,1007.68
2017-09-06T03:56:31.158Z,1007.67
2017-09-06T03:57:11.733Z,1007.67
2017-09-06T03:57:52.301Z,1007.65
2017-09-06T03:58:32.880Z,1007.69
2017-09-06T03:59:13.472Z,1007.66
2017-09-06T03:59:54.063Z,1007.63
2017-09-06T04:00:34.673Z,1007.64
2017-09-06T04:01:15.247Z,1007.63
2017-09-06T04:01:55.840Z,1007.61
2017-09-06T04:02:36.413Z,1007.59
2017-09-06T04:03:16.989Z,1007.6
2017-09-06T04:03:57.594Z,1007.59
2017-09-06T04:04:38.174Z,1007.58
2017-09-06T04:05:18.762Z,1007.61
2017-09-06T04:05:59.360Z,1007.61
2017-09-06T04:06:39.961Z,1007.6
2017-09-06T04:07:20.526Z,1007.56
2017-09-06T04:08:01.106Z,1007.54
2017-09-06T04:08:41.687Z,1007.56
2017-09-06T04:09:22.280Z,1007.6
2017-09-06T04:10:02.853Z,1007.6
2017-09-06T04:10:43.455Z,1007.58
2017-09-06T04:11:24.038Z,1007.58
2017-09-06T04:12:04.636Z,1007.57
2017-09-06T04:12:45.210Z,1007.61
2017-09-06T04:13:25.795Z,1007.55
2017-09-06T04:14:06.369Z,1007.54
2017-09-06T04:14:46.968Z,1007.52
2017-09-06T04:15:27.537Z,1007.51
2017-09-06T04:16:08.108Z,1007.49
2017-09-06T04:16:48.704Z,1007.52
2017-09-06T04:17:29.297Z,1007.49
2017-09-06T04:18:09.874Z,1007.49
2017-09-06T04:18:50.461Z,1007.46
2017-09-06T04:19:31.049Z,1007.48
2017-09-06T04:20:11.611Z,1007.47
2017-09-06T04:20:52.204Z,1007.46
2017-09-06T04:21:32.777Z,1007.49
2017-09-06T04:22:13.349Z,1007.46
2017-09-06T04:22:53.929Z,1007.46
2017-09-06T04:23:34.520Z,1007.44
2017-09-06T04:24:15.109Z,1007.46
2017-09-06T04:24:55.689Z,1007.44
2017-09-06T04:25:36.264Z,1007.47
2017-09-06T04:26:16.856Z,1007.47
2017-09-06T04:26:57.417Z,1007.45
2017-09-06T04:27:38.020Z,1007.44
2017-09-06T04:28:18.591Z,1007.44
2017-09-06T04:28:59.191Z,1007.42
2017-09-06T04:29:39.769Z,1007.45
2017-09-06T04:30:20.366Z,1007.46
2017-09-06T04:31:00.930Z,1007.46
2017-09-06T04:31:41.519Z,1007.48
2017-09-06T04:32:22.117Z,1007.47
2017-09-06T04:33:02.664Z,1007.47
2017-09-06T04:33:43.243Z,1007.47
2017-09-06T04:34:23.839Z,1007.47
2017-09-06T04:35:04.418Z,1007.44
2017-09-06T04:35:45.011Z,1007.51
2017-09-06T04:36:25.617Z,1007.47
2017-09-06T04:37:06.209Z,1007.44
2017-09-06T04:37:46.788Z,1007.47
2017-09-06T04:38:27.372Z,1007.45
2017-09-06T04:39:07.935Z,1007.41
2017-09-06T04:39:48.516Z,1007.4
2017-09-06T04:40:29.086Z,1007.38
2017-09-06T04:41:09.684Z,1007.33
2017-09-06T04:41:50.277Z,1007.34
2017-09-06T04:42:30.854Z,1007.33
2017-09-06T04:43:11.432Z,1007.28
2017-09-06T04:43:52.024Z,1007.28
2017-09-06T04:44:32.595Z,1007.27
2017-09-06T04:45:13.159Z,1007.22
2017-09-06T04:45:53.951Z,1007.21
2017-09-06T04:46:34.562Z,1007.2
2017-09-06T04:47:15.138Z,1007.14
2017-09-06T04:47:55.728Z,1007.15
2017-09-06T04:48:36.299Z,1007.15
2017-09-06T04:49:16.895Z,1007.17
2017-09-06T04:49:57.462Z,1007.18
2017-09-06T04:50:38.053Z,1007.18
2017-09-06T04:51:18.618Z,1007.21
2017-09-06T04:51:59.189Z,1007.2
2017-09-06T04:52:39.785Z,1007.24
2017-09-06T04:53:20.473Z,1007.26
2017-09-06T04:54:01.094Z,1007.21
2017-09-06T04:54:41.676Z,1007.22
2017-09-06T04:55:22.456Z,1007.21
2017-09-06T04:56:03.086Z,1007.24
2017-09-06T04:56:43.894Z,1007.18
2017-09-06T04:57:24.467Z,1007.17
2017-09-06T04:58:05.050Z,1007.18
2017-09-06T04:58:45.633Z,1007.18
2017-09-06T04:59:26.222Z,1007.14
2017-09-06T05:00:06.809Z,1007.14
2017-09-06T05:00:47.387Z,1007.13
2017-09-06T05:01:27.960Z,1007.08
2017-09-06T05:02:08.543Z,1007.06
2017-09-06T05:02:49.180Z,1007.09
2017-09-06T05:03:29.771Z,1007.06
2017-09-06T05:04:10.341Z,1007.07
2017-09-06T05:04:50.919Z,1007.05
2017-09-06T05:05:31.540Z,1007.03
2017-09-06T05:06:12.110Z,1007.02
2017-09-06T05:06:52.697Z,1007.01
2017-09-06T05:07:33.387Z,1007.02
2017-09-06T05:08:13.983Z,1007.01
2017-09-06T05:08:54.568Z,1006.97
2017-09-06T05:09:35.142Z,1006.99
2017-09-06T05:10:15.714Z,1006.98
2017-09-06T05:10:56.383Z,1006.96
2017-09-06T05:11:36.971Z,1006.98
2017-09-06T05:12:17.560Z,1006.98
2017-09-06T05:12:58.999Z,1007
2017-09-06T05:13:39.571Z,1007
2017-09-06T05:14:20.150Z,1006.97
2017-09-06T05:15:00.710Z,1006.97
2017-09-06T05:15:41.284Z,1006.94
2017-09-06T05:16:21.855Z,1006.96
2017-09-06T05:17:02.440Z,1006.95
2017-09-06T05:17:43.021Z,1006.93
2017-09-06T05:18:23.598Z,1006.94
2017-09-06T05:19:04.185Z,1006.93
2017-09-06T05:19:45.155Z,1006.92
2017-09-06T05:20:25.755Z,1006.96
2017-09-06T05:21:06.345Z,1006.97
2017-09-06T05:21:46.935Z,1006.95
2017-09-06T05:22:27.511Z,1006.94
2017-09-06T05:23:08.086Z,1006.95
2017-09-06T05:23:48.664Z,1006.95
2017-09-06T05:24:29.254Z,1006.97
2017-09-06T05:25:09.876Z,1006.94
2017-09-06T05:25:50.471Z,1006.94
2017-09-06T05:26:31.043Z,1006.93
2017-09-06T05:27:11.628Z,1006.93
2017-09-06T05:27:52.209Z,1006.94
2017-09-06T05:28:32.812Z,1006.89
2017-09-06T05:29:13.380Z,1006.93
2017-09-06T05:29:53.976Z,1006.97
2017-09-06T05:30:34.534Z,1006.96
2017-09-06T05:31:15.143Z,1006.98
2017-09-06T05:31:55.725Z,1007
2017-09-06T05:32:36.293Z,1007
2017-09-06T05:33:16.874Z,1006.99
2017-09-06T05:33:57.449Z,1007.01
2017-09-06T05:34:38.032Z,1007
2017-09-06T05:35:18.624Z,1007.02
2017-09-06T05:35:59.182Z,1007.03
2017-09-06T05:36:39.764Z,1007.07
2017-09-06T05:37:20.371Z,1007.06
2017-09-06T05:38:00.960Z,1007.05
2017-09-06T05:38:41.585Z,1007.07
2017-09-06T05:39:22.156Z,1007.02
2017-09-06T05:40:02.742Z,1006.97
2017-09-06T05:40:43.324Z,1007.01
2017-09-06T05:41:23.905Z,1006.99
2017-09-06T05:42:04.480Z,1006.96
2017-09-06T05:42:45.074Z,1006.98
2017-09-06T05:43:25.658Z,1006.96
2017-09-06T05:44:06.216Z,1007.01
2017-09-06T05:44:46.782Z,1007.05
2017-09-06T05:45:27.372Z,1007.04
2017-09-06T05:46:07.952Z,1007.08
2017-09-06T05:46:48.541Z,1007.1
2017-09-06T05:47:29.141Z,1007.07
2017-09-06T05:48:09.722Z,1007.12
2017-09-06T05:48:50.307Z,1007.12
2017-09-06T05:49:30.894Z,1007.12
2017-09-06T05:50:11.471Z,1007.14
2017-09-06T05:50:52.090Z,1007.15
2017-09-06T05:51:32.687Z,1007.14
2017-09-06T05:52:13.329Z,1007.16
2017-09-06T05:52:53.855Z,1007.15
2017-09-06T05:53:34.423Z,1007.15
2017-09-06T05:54:15.008Z,1007.12
2017-09-06T05:54:55.593Z,1007.13
2017-09-06T05:55:36.173Z,1007.11
2017-09-06T05:56:16.792Z,1007.1
2017-09-06T05:56:57.354Z,1007.11
2017-09-06T05:57:37.917Z,1007.11
2017-09-06T05:58:18.494Z,1007.12
2017-09-06T05:58:59.068Z,1007.07
2017-09-06T05:59:39.650Z,1007.06
2017-09-06T06:00:20.230Z,1007.06
2017-09-06T06:01:00.815Z,1007.02
2017-09-06T06:01:41.376Z,1007.02
2017-09-06T06:02:21.955Z,1007.04
2017-09-06T06:03:02.535Z,1007.05
2017-09-06T06:03:43.457Z,1007
2017-09-06T06:04:24.672Z,1007.04
2017-09-06T06:05:05.260Z,1007.02
2017-09-06T06:05:45.822Z,1007
2017-09-06T06:06:26.671Z,1007.05
2017-09-06T06:07:07.242Z,1007.03
2017-09-06T06:07:47.830Z,1007.01
2017-09-06T06:08:28.415Z,1006.98
2017-09-06T06:09:08.998Z,1006.96
2017-09-06T06:09:49.629Z,1006.96
2017-09-06T06:10:30.246Z,1006.91
2017-09-06T06:11:10.817Z,1006.94
2017-09-06T06:11:51.394Z,1006.93
2017-09-06T06:12:31.976Z,1006.9
2017-09-06T06:13:12.544Z,1006.89
2017-09-06T06:13:53.128Z,1006.89
2017-09-06T06:14:33.705Z,1006.86
2017-09-06T06:15:14.279Z,1006.85
2017-09-06T06:15:54.853Z,1006.86
2017-09-06T06:16:35.427Z,1006.82
2017-09-06T06:17:15.990Z,1006.87
2017-09-06T06:17:56.586Z,1006.89
2017-09-06T06:18:37.160Z,1006.93
2017-09-06T06:19:17.794Z,1006.87
2017-09-06T06:19:58.384Z,1006.89
2017-09-06T06:20:38.991Z,1006.86
2017-09-06T06:21:19.578Z,1006.78
2017-09-06T06:22:00.185Z,1006.8
2017-09-06T06:22:40.760Z,1006.77
2017-09-06T06:23:21.333Z,1006.81
2017-09-06T06:24:01.934Z,1006.79
2017-09-06T06:24:42.542Z,1006.77
2017-09-06T06:25:23.146Z,1006.79
2017-09-06T06:26:03.724Z,1006.79
2017-09-06T06:26:44.298Z,1006.8
2017-09-06T06:27:24.895Z,1006.82
2017-09-06T06:28:05.452Z,1006.83
2017-09-06T06:28:46.039Z,1006.9
2017-09-06T06:29:26.644Z,1006.87
2017-09-06T06:30:07.217Z,1006.85
2017-09-06T06:30:47.800Z,1006.87
2017-09-06T06:31:28.379Z,1006.86
2017-09-06T06:32:08.981Z,1006.84
2017-09-06T06:32:49.582Z,1006.85
2017-09-06T06:33:30.157Z,1006.8
2017-09-06T06:34:10.819Z,1006.82
2017-09-06T06:34:51.386Z,1006.8
2017-09-06T06:35:31.972Z,1006.74
2017-09-06T06:36:12.558Z,1006.69
2017-09-06T06:36:53.144Z,1006.68
2017-09-06T06:37:33.802Z,1006.67
2017-09-06T06:38:14.322Z,1006.67
2017-09-06T06:38:55.163Z,1006.69
2017-09-06T06:39:35.746Z,1006.73
2017-09-06T06:40:16.749Z,1006.71
2017-09-06T06:40:57.323Z,1006.71
2017-09-06T06:41:37.891Z,1006.69
2017-09-06T06:42:18.484Z,1006.69
2017-09-06T06:42:59.089Z,1006.7
2017-09-06T06:43:39.671Z,1006.74
2017-09-06T06:44:20.247Z,1006.78
2017-09-06T06:45:00.824Z,1006.79
2017-09-06T06:45:41.404Z,1006.81
2017-09-06T06:46:22.046Z,1006.78
2017-09-06T06:47:02.616Z,1006.76
2017-09-06T06:47:43.211Z,1006.77
2017-09-06T06:48:23.787Z,1006.75
2017-09-06T06:49:04.416Z,1006.71
2017-09-06T06:49:45.004Z,1006.75
2017-09-06T06:50:25.760Z,1006.76
2017-09-06T06:51:06.350Z,1006.74
2017-09-06T06:51:46.904Z,1006.77
2017-09-06T06:52:27.504Z,1006.72
2017-09-06T06:53:08.097Z,1006.71
2017-09-06T06:53:48.711Z,1006.7
2017-09-06T06:54:29.295Z,1006.69
2017-09-06T06:55:09.885Z,1006.7
2017-09-06T06:55:50.469Z,1006.72
2017-09-06T06:56:31.049Z,1006.68
2017-09-06T06:57:11.638Z,1006.72
2017-09-06T06:57:52.363Z,1006.71
2017-09-06T06:58:32.943Z,1006.67
2017-09-06T06:59:13.515Z,1006.64
2017-09-06T06:59:54.105Z,1006.63
2017-09-06T07:00:34.709Z,1006.64
2017-09-06T07:01:15.296Z,1006.71
2017-09-06T07:01:55.867Z,1006.69
2017-09-06T07:02:37.172Z,1006.71
2017-09-06T07:03:17.743Z,1006.74
2017-09-06T07:03:58.511Z,1006.75
2017-09-06T07:04:39.135Z,1006.77
2017-09-06T07:05:19.779Z,1006.77
2017-09-06T07:06:00.390Z,1006.74
2017-09-06T07:06:40.979Z,1006.71
2017-09-06T07:07:22.117Z,1006.74
2017-09-06T07:08:02.772Z,1006.69
2017-09-06T07:08:43.348Z,1006.67
2017-09-06T07:09:23.931Z,1006.68
2017-09-06T07:10:04.508Z,1006.7
2017-09-06T07:10:45.104Z,1006.7
2017-09-06T07:11:25.746Z,1006.64
2017-09-06T07:12:06.311Z,1006.61
2017-09-06T07:12:46.912Z,1006.61
2017-09-06T07:13:27.483Z,1006.62
2017-09-06T07:14:08.065Z,1006.63
2017-09-06T07:14:48.641Z,1006.59
2017-09-06T07:15:29.210Z,1006.53
2017-09-06T07:16:10.215Z,1006.54
2017-09-06T07:16:50.479Z,1006.52
2017-09-06T07:17:31.180Z,1006.48
2017-09-06T07:18:11.764Z,1006.48
2017-09-06T07:18:52.337Z,1006.5
2017-09-06T07:19:32.926Z,1006.43
2017-09-06T07:20:13.498Z,1006.44
2017-09-06T07:20:54.786Z,1006.37
2017-09-06T07:21:35.360Z,1006.32
2017-09-06T07:22:15.955Z,1006.35
2017-09-06T07:22:56.538Z,1006.3
2017-09-06T07:23:37.115Z,1006.29
2017-09-06T07:24:17.707Z,1006.27
2017-09-06T07:24:58.312Z,1006.33
2017-09-06T07:25:38.886Z,1006.28
2017-09-06T07:26:19.617Z,1006.28
2017-09-06T07:27:00.301Z,1006.23
2017-09-06T07:27:40.884Z,1006.24
2017-09-06T07:28:21.526Z,1006.26
2017-09-06T07:29:02.297Z,1006.23
2017-09-06T07:29:42.921Z,1006.27
2017-09-06T07:30:23.494Z,1006.27
2017-09-06T07:31:04.077Z,1006.28
2017-09-06T07:31:44.663Z,1006.34
2017-09-06T07:32:25.228Z,1006.32
2017-09-06T07:33:05.808Z,1006.33
2017-09-06T07:33:46.384Z,1006.34
2017-09-06T07:34:26.969Z,1006.32
2017-09-06T07:35:07.570Z,1006.32
2017-09-06T07:35:48.205Z,1006.27
2017-09-06T07:36:28.857Z,1006.28
2017-09-06T07:37:09.478Z,1006.3
2017-09-06T07:37:50.061Z,1006.29
2017-09-06T07:38:30.646Z,1006.28
2017-09-06T07:39:11.209Z,1006.27
2017-09-06T07:39:51.804Z,1006.29
2017-09-06T07:40:32.410Z,1006.28
2017-09-06T07:41:12.982Z,1006.28
2017-09-06T07:41:53.612Z,1006.3
2017-09-06T07:42:34.228Z,1006.32
2017-09-06T07:43:14.845Z,1006.36
2017-09-06T07:43:55.415Z,1006.39
2017-09-06T07:44:36.043Z,1006.37
2017-09-06T07:45:16.611Z,1006.36
2017-09-06T07:45:57.241Z,1006.37
2017-09-06T07:46:37.884Z,1006.37
2017-09-06T07:47:18.459Z,1006.35
2017-09-06T07:47:59.276Z,1006.33
2017-09-06T07:48:39.876Z,1006.32
2017-09-06T07:49:20.468Z,1006.41
2017-09-06T07:50:01.039Z,1006.35
2017-09-06T07:50:41.675Z,1006.34
2017-09-06T07:51:22.426Z,1006.35
2017-09-06T07:52:03.100Z,1006.34
2017-09-06T07:52:43.698Z,1006.36
2017-09-06T07:53:24.285Z,1006.36
2017-09-06T07:54:04.862Z,1006.4
2017-09-06T07:54:45.463Z,1006.37
2017-09-06T07:55:26.047Z,1006.36
2017-09-06T07:56:06.649Z,1006.36
2017-09-06T07:56:47.237Z,1006.38
2017-09-06T07:57:27.829Z,1006.35
2017-09-06T07:58:08.406Z,1006.36
2017-09-06T07:58:49.013Z,1006.34
2017-09-06T07:59:29.595Z,1006.33
2017-09-06T08:00:10.171Z,1006.36
2017-09-06T08:00:50.774Z,1006.33
2017-09-06T08:01:31.357Z,1006.33
2017-09-06T08:02:11.955Z,1006.34
2017-09-06T08:02:52.543Z,1006.35
2017-09-06T08:03:33.123Z,1006.32
2017-09-06T08:04:13.749Z,1006.27
2017-09-06T08:04:54.323Z,1006.31
2017-09-06T08:05:35.109Z,1006.32
2017-09-06T08:06:15.693Z,1006.3
2017-09-06T08:06:57.360Z,1006.29
2017-09-06T08:07:38.410Z,1006.28
2017-09-06T08:08:19.031Z,1006.26
2017-09-06T08:08:59.592Z,1006.25
2017-09-06T08:09:40.177Z,1006.25
2017-09-06T08:10:20.754Z,1006.28
2017-09-06T08:11:01.332Z,1006.3
2017-09-06T08:11:41.967Z,1006.24
2017-09-06T08:12:22.535Z,1006.24
2017-09-06T08:13:03.156Z,1006.26